sensor_id;sensor_type;location;lat;lon;timestamp;P1;durP1;ratioP1;P2;durP2;ratioP2
11113;SDS011;5610;52.154;9.198;2023-06-14T00:00:16;4.73;;;3.50;;
11113;SDS011;5610;52.154;9.198;2023-06-14T00:03:02;3.90;;;3.37;;
11113;SDS011;5610;52.154;9.198;2023-06-14T00:05:48;5.07;;;3.80;;
11113;SDS011;5610;52.154;9.198;2023-06-14T00:08:33;4.20;;;3.77;;
11113;SDS011;5610;52.154;9.198;2023-06-14T00:11:20;7.13;;;3.87;;
11113;SDS011;5610;52.154;9.198;2023-06-14T00:14:05;5.17;;;4.37;;
11113;SDS011;5610;52.154;9.198;2023-06-14T00:16:50;5.50;;;3.87;;
11113;SDS011;5610;52.154;9.198;2023-06-14T00:19:42;4.97;;;3.47;;
11113;SDS011;5610;52.154;9.198;2023-06-14T00:22:27;6.33;;;3.90;;
11113;SDS011;5610;52.154;9.198;2023-06-14T00:25:14;5.90;;;4.27;;
11113;SDS011;5610;52.154;9.198;2023-06-14T00:28:01;7.20;;;3.60;;
11113;SDS011;5610;52.154;9.198;2023-06-14T00:30:46;3.23;;;2.93;;
11113;SDS011;5610;52.154;9.198;2023-06-14T00:33:31;4.70;;;3.80;;
11113;SDS011;5610;52.154;9.198;2023-06-14T00:36:16;5.67;;;3.50;;
11113;SDS011;5610;52.154;9.198;2023-06-14T00:39:01;4.57;;;3.50;;
11113;SDS011;5610;52.154;9.198;2023-06-14T00:41:47;5.47;;;3.90;;
11113;SDS011;5610;52.154;9.198;2023-06-14T00:44:33;10.90;;;3.90;;
11113;SDS011;5610;52.154;9.198;2023-06-14T00:47:19;5.43;;;3.83;;
11113;SDS011;5610;52.154;9.198;2023-06-14T00:50:07;5.23;;;4.00;;
11113;SDS011;5610;52.154;9.198;2023-06-14T00:52:52;6.83;;;3.80;;
11113;SDS011;5610;52.154;9.198;2023-06-14T00:55:37;4.83;;;3.50;;
11113;SDS011;5610;52.154;9.198;2023-06-14T00:58:23;4.97;;;3.57;;
11113;SDS011;5610;52.154;9.198;2023-06-14T01:01:10;3.97;;;3.57;;
11113;SDS011;5610;52.154;9.198;2023-06-14T01:03:55;4.80;;;4.03;;
11113;SDS011;5610;52.154;9.198;2023-06-14T01:10:04;6.27;;;3.10;;
11113;SDS011;5610;52.154;9.198;2023-06-14T01:12:58;5.27;;;3.60;;
11113;SDS011;5610;52.154;9.198;2023-06-14T01:15:47;4.60;;;3.67;;
11113;SDS011;5610;52.154;9.198;2023-06-14T01:18:36;4.50;;;3.50;;
11113;SDS011;5610;52.154;9.198;2023-06-14T01:21:21;3.63;;;3.33;;
11113;SDS011;5610;52.154;9.198;2023-06-14T01:24:09;5.13;;;3.93;;
11113;SDS011;5610;52.154;9.198;2023-06-14T01:26:55;6.33;;;3.87;;
11113;SDS011;5610;52.154;9.198;2023-06-14T01:29:40;6.63;;;3.73;;
11113;SDS011;5610;52.154;9.198;2023-06-14T01:32:32;5.97;;;4.20;;
11113;SDS011;5610;52.154;9.198;2023-06-14T01:35:18;4.77;;;4.27;;
11113;SDS011;5610;52.154;9.198;2023-06-14T01:38:04;4.43;;;3.73;;
11113;SDS011;5610;52.154;9.198;2023-06-14T01:40:53;11.87;;;4.40;;
11113;SDS011;5610;52.154;9.198;2023-06-14T01:43:43;5.77;;;4.27;;
11113;SDS011;5610;52.154;9.198;2023-06-14T01:46:29;4.70;;;4.30;;
11113;SDS011;5610;52.154;9.198;2023-06-14T01:49:14;3.83;;;3.50;;
11113;SDS011;5610;52.154;9.198;2023-06-14T01:51:59;3.57;;;3.27;;
11113;SDS011;5610;52.154;9.198;2023-06-14T01:54:45;4.13;;;3.30;;
11113;SDS011;5610;52.154;9.198;2023-06-14T01:57:32;5.23;;;3.60;;
11113;SDS011;5610;52.154;9.198;2023-06-14T02:00:18;5.73;;;3.67;;
11113;SDS011;5610;52.154;9.198;2023-06-14T02:03:04;5.23;;;3.67;;
11113;SDS011;5610;52.154;9.198;2023-06-14T02:05:49;4.43;;;3.60;;
11113;SDS011;5610;52.154;9.198;2023-06-14T02:08:35;4.27;;;3.23;;
11113;SDS011;5610;52.154;9.198;2023-06-14T02:11:19;5.27;;;3.93;;
11113;SDS011;5610;52.154;9.198;2023-06-14T02:14:06;3.87;;;3.20;;
11113;SDS011;5610;52.154;9.198;2023-06-14T02:16:55;4.70;;;2.90;;
11113;SDS011;5610;52.154;9.198;2023-06-14T02:19:40;8.83;;;3.83;;
11113;SDS011;5610;52.154;9.198;2023-06-14T02:22:26;3.73;;;3.30;;
11113;SDS011;5610;52.154;9.198;2023-06-14T02:25:11;6.57;;;3.60;;
11113;SDS011;5610;52.154;9.198;2023-06-14T02:27:58;4.93;;;3.30;;
11113;SDS011;5610;52.154;9.198;2023-06-14T02:30:44;4.30;;;3.87;;
11113;SDS011;5610;52.154;9.198;2023-06-14T02:33:30;6.40;;;3.37;;
11113;SDS011;5610;52.154;9.198;2023-06-14T02:36:15;4.63;;;3.40;;
11113;SDS011;5610;52.154;9.198;2023-06-14T02:39:00;4.27;;;3.70;;
11113;SDS011;5610;52.154;9.198;2023-06-14T02:41:45;5.07;;;3.63;;
11113;SDS011;5610;52.154;9.198;2023-06-14T02:44:31;7.40;;;4.00;;
11113;SDS011;5610;52.154;9.198;2023-06-14T02:47:18;3.67;;;3.33;;
11113;SDS011;5610;52.154;9.198;2023-06-14T02:50:04;12.73;;;4.00;;
11113;SDS011;5610;52.154;9.198;2023-06-14T02:52:50;3.77;;;3.20;;
11113;SDS011;5610;52.154;9.198;2023-06-14T02:55:40;8.73;;;3.50;;
11113;SDS011;5610;52.154;9.198;2023-06-14T02:58:25;4.40;;;3.17;;
11113;SDS011;5610;52.154;9.198;2023-06-14T03:01:11;3.60;;;3.00;;
11113;SDS011;5610;52.154;9.198;2023-06-14T03:03:58;6.90;;;4.10;;
11113;SDS011;5610;52.154;9.198;2023-06-14T03:06:43;3.53;;;3.13;;
11113;SDS011;5610;52.154;9.198;2023-06-14T03:09:36;3.70;;;3.40;;
11113;SDS011;5610;52.154;9.198;2023-06-14T03:12:22;6.10;;;3.67;;
11113;SDS011;5610;52.154;9.198;2023-06-14T03:15:08;3.60;;;3.20;;
11113;SDS011;5610;52.154;9.198;2023-06-14T03:17:59;9.17;;;3.07;;
11113;SDS011;5610;52.154;9.198;2023-06-14T03:20:46;4.03;;;3.50;;
11113;SDS011;5610;52.154;9.198;2023-06-14T03:23:31;6.13;;;3.50;;
11113;SDS011;5610;52.154;9.198;2023-06-14T03:26:16;3.80;;;3.27;;
11113;SDS011;5610;52.154;9.198;2023-06-14T03:29:04;6.60;;;3.80;;
11113;SDS011;5610;52.154;9.198;2023-06-14T03:31:58;7.90;;;3.90;;
11113;SDS011;5610;52.154;9.198;2023-06-14T03:34:52;5.90;;;3.40;;
11113;SDS011;5610;52.154;9.198;2023-06-14T03:37:42;3.83;;;3.50;;
11113;SDS011;5610;52.154;9.198;2023-06-14T03:40:27;4.37;;;3.80;;
11113;SDS011;5610;52.154;9.198;2023-06-14T03:43:18;4.70;;;3.50;;
11113;SDS011;5610;52.154;9.198;2023-06-14T03:46:03;4.20;;;3.50;;
11113;SDS011;5610;52.154;9.198;2023-06-14T03:48:50;3.70;;;3.40;;
11113;SDS011;5610;52.154;9.198;2023-06-14T03:51:36;3.33;;;3.03;;
11113;SDS011;5610;52.154;9.198;2023-06-14T03:54:22;6.83;;;3.30;;
11113;SDS011;5610;52.154;9.198;2023-06-14T03:57:10;7.20;;;3.57;;
11113;SDS011;5610;52.154;9.198;2023-06-14T03:59:55;4.37;;;2.87;;
11113;SDS011;5610;52.154;9.198;2023-06-14T04:02:41;5.53;;;3.33;;
11113;SDS011;5610;52.154;9.198;2023-06-14T04:05:28;4.13;;;3.30;;
11113;SDS011;5610;52.154;9.198;2023-06-14T04:08:14;5.40;;;3.77;;
11113;SDS011;5610;52.154;9.198;2023-06-14T04:11:01;4.53;;;3.47;;
11113;SDS011;5610;52.154;9.198;2023-06-14T04:13:46;3.73;;;3.43;;
11113;SDS011;5610;52.154;9.198;2023-06-14T04:16:32;4.47;;;3.10;;
11113;SDS011;5610;52.154;9.198;2023-06-14T04:19:18;4.00;;;3.53;;
11113;SDS011;5610;52.154;9.198;2023-06-14T04:22:03;3.43;;;2.70;;
11113;SDS011;5610;52.154;9.198;2023-06-14T04:24:51;6.30;;;3.20;;
11113;SDS011;5610;52.154;9.198;2023-06-14T04:27:40;3.30;;;2.70;;
11113;SDS011;5610;52.154;9.198;2023-06-14T04:30:25;3.40;;;3.10;;
11113;SDS011;5610;52.154;9.198;2023-06-14T04:33:15;4.20;;;2.80;;
11113;SDS011;5610;52.154;9.198;2023-06-14T04:36:01;3.97;;;3.07;;
11113;SDS011;5610;52.154;9.198;2023-06-14T04:38:48;5.30;;;3.27;;
11113;SDS011;5610;52.154;9.198;2023-06-14T04:41:37;4.13;;;3.13;;
11113;SDS011;5610;52.154;9.198;2023-06-14T04:44:24;4.93;;;2.80;;
11113;SDS011;5610;52.154;9.198;2023-06-14T04:47:14;5.60;;;2.93;;
11113;SDS011;5610;52.154;9.198;2023-06-14T04:50:00;3.97;;;2.67;;
11113;SDS011;5610;52.154;9.198;2023-06-14T04:52:47;4.93;;;2.77;;
11113;SDS011;5610;52.154;9.198;2023-06-14T04:55:35;5.80;;;2.80;;
11113;SDS011;5610;52.154;9.198;2023-06-14T04:58:22;4.80;;;3.13;;
11113;SDS011;5610;52.154;9.198;2023-06-14T05:01:09;4.37;;;3.20;;
11113;SDS011;5610;52.154;9.198;2023-06-14T05:03:55;11.93;;;3.73;;
11113;SDS011;5610;52.154;9.198;2023-06-14T05:06:40;4.20;;;3.27;;
11113;SDS011;5610;52.154;9.198;2023-06-14T05:09:26;3.70;;;2.67;;
11113;SDS011;5610;52.154;9.198;2023-06-14T05:12:11;3.30;;;3.00;;
11113;SDS011;5610;52.154;9.198;2023-06-14T05:14:56;12.37;;;3.23;;
11113;SDS011;5610;52.154;9.198;2023-06-14T05:17:45;5.50;;;3.20;;
11113;SDS011;5610;52.154;9.198;2023-06-14T05:20:31;4.27;;;3.80;;
11113;SDS011;5610;52.154;9.198;2023-06-14T05:23:17;4.50;;;3.10;;
11113;SDS011;5610;52.154;9.198;2023-06-14T05:26:02;4.00;;;3.57;;
11113;SDS011;5610;52.154;9.198;2023-06-14T05:28:48;6.30;;;3.00;;
11113;SDS011;5610;52.154;9.198;2023-06-14T05:31:33;5.00;;;3.20;;
11113;SDS011;5610;52.154;9.198;2023-06-14T05:34:20;4.13;;;2.87;;
11113;SDS011;5610;52.154;9.198;2023-06-14T05:37:06;3.70;;;3.07;;
11113;SDS011;5610;52.154;9.198;2023-06-14T05:39:51;3.40;;;2.40;;
11113;SDS011;5610;52.154;9.198;2023-06-14T05:42:36;4.57;;;3.10;;
11113;SDS011;5610;52.154;9.198;2023-06-14T05:45:21;3.37;;;3.07;;
11113;SDS011;5610;52.154;9.198;2023-06-14T05:48:06;5.47;;;3.13;;
11113;SDS011;5610;52.154;9.198;2023-06-14T05:50:53;3.67;;;3.37;;
11113;SDS011;5610;52.154;9.198;2023-06-14T05:53:38;3.73;;;2.90;;
11113;SDS011;5610;52.154;9.198;2023-06-14T05:56:24;4.00;;;3.50;;
11113;SDS011;5610;52.154;9.198;2023-06-14T05:59:10;5.60;;;3.30;;
11113;SDS011;5610;52.154;9.198;2023-06-14T06:01:55;3.67;;;3.10;;
11113;SDS011;5610;52.154;9.198;2023-06-14T06:04:40;5.23;;;3.07;;
11113;SDS011;5610;52.154;9.198;2023-06-14T06:07:26;6.60;;;3.20;;
11113;SDS011;5610;52.154;9.198;2023-06-14T06:10:11;4.50;;;3.33;;
11113;SDS011;5610;52.154;9.198;2023-06-14T06:12:57;3.90;;;3.20;;
11113;SDS011;5610;52.154;9.198;2023-06-14T06:15:42;5.07;;;2.97;;
11113;SDS011;5610;52.154;9.198;2023-06-14T06:18:27;3.37;;;2.60;;
11113;SDS011;5610;52.154;9.198;2023-06-14T06:21:13;5.07;;;2.87;;
11113;SDS011;5610;52.154;9.198;2023-06-14T06:24:00;3.30;;;3.00;;
11113;SDS011;5610;52.154;9.198;2023-06-14T06:26:47;3.60;;;3.00;;
11113;SDS011;5610;52.154;9.198;2023-06-14T06:29:32;5.03;;;3.00;;
11113;SDS011;5610;52.154;9.198;2023-06-14T06:32:17;4.37;;;3.00;;
11113;SDS011;5610;52.154;9.198;2023-06-14T06:35:02;3.70;;;2.90;;
11113;SDS011;5610;52.154;9.198;2023-06-14T06:37:50;4.77;;;2.93;;
11113;SDS011;5610;52.154;9.198;2023-06-14T06:40:36;5.33;;;3.00;;
11113;SDS011;5610;52.154;9.198;2023-06-14T06:43:22;3.77;;;3.47;;
11113;SDS011;5610;52.154;9.198;2023-06-14T06:46:07;3.90;;;3.00;;
11113;SDS011;5610;52.154;9.198;2023-06-14T06:48:53;3.83;;;3.37;;
11113;SDS011;5610;52.154;9.198;2023-06-14T06:51:40;3.17;;;2.87;;
11113;SDS011;5610;52.154;9.198;2023-06-14T06:54:26;3.10;;;2.83;;
11113;SDS011;5610;52.154;9.198;2023-06-14T06:57:13;6.10;;;3.50;;
11113;SDS011;5610;52.154;9.198;2023-06-14T06:59:58;4.87;;;3.53;;
11113;SDS011;5610;52.154;9.198;2023-06-14T07:02:44;3.43;;;3.17;;
11113;SDS011;5610;52.154;9.198;2023-06-14T07:05:29;4.03;;;3.40;;
11113;SDS011;5610;52.154;9.198;2023-06-14T07:08:14;3.60;;;3.30;;
11113;SDS011;5610;52.154;9.198;2023-06-14T07:10:59;4.40;;;3.53;;
11113;SDS011;5610;52.154;9.198;2023-06-14T07:13:46;5.57;;;3.37;;
11113;SDS011;5610;52.154;9.198;2023-06-14T07:16:31;4.37;;;3.07;;
11113;SDS011;5610;52.154;9.198;2023-06-14T07:19:17;2.97;;;2.67;;
11113;SDS011;5610;52.154;9.198;2023-06-14T07:22:02;4.70;;;3.20;;
11113;SDS011;5610;52.154;9.198;2023-06-14T07:24:48;3.10;;;2.90;;
11113;SDS011;5610;52.154;9.198;2023-06-14T07:27:33;4.40;;;3.03;;
11113;SDS011;5610;52.154;9.198;2023-06-14T07:30:20;2.80;;;2.60;;
11113;SDS011;5610;52.154;9.198;2023-06-14T07:33:09;3.40;;;3.10;;
11113;SDS011;5610;52.154;9.198;2023-06-14T07:35:56;3.10;;;2.80;;
11113;SDS011;5610;52.154;9.198;2023-06-14T07:38:41;2.70;;;2.50;;
11113;SDS011;5610;52.154;9.198;2023-06-14T07:41:26;3.87;;;2.73;;
11113;SDS011;5610;52.154;9.198;2023-06-14T07:44:11;7.27;;;2.67;;
11113;SDS011;5610;52.154;9.198;2023-06-14T07:46:58;5.30;;;2.90;;
11113;SDS011;5610;52.154;9.198;2023-06-14T07:49:44;3.73;;;2.97;;
11113;SDS011;5610;52.154;9.198;2023-06-14T07:52:29;2.80;;;2.60;;
11113;SDS011;5610;52.154;9.198;2023-06-14T07:55:14;4.33;;;2.60;;
11113;SDS011;5610;52.154;9.198;2023-06-14T07:58:00;3.50;;;2.70;;
11113;SDS011;5610;52.154;9.198;2023-06-14T08:00:45;3.20;;;2.80;;
11113;SDS011;5610;52.154;9.198;2023-06-14T08:03:32;3.77;;;2.70;;
11113;SDS011;5610;52.154;9.198;2023-06-14T08:06:18;3.07;;;2.20;;
11113;SDS011;5610;52.154;9.198;2023-06-14T08:09:03;3.97;;;2.50;;
11113;SDS011;5610;52.154;9.198;2023-06-14T08:11:49;3.10;;;2.50;;
11113;SDS011;5610;52.154;9.198;2023-06-14T08:14:34;3.30;;;3.00;;
11113;SDS011;5610;52.154;9.198;2023-06-14T08:17:19;3.63;;;2.67;;
11113;SDS011;5610;52.154;9.198;2023-06-14T08:20:06;2.67;;;2.17;;
11113;SDS011;5610;52.154;9.198;2023-06-14T08:22:52;4.30;;;2.23;;
11113;SDS011;5610;52.154;9.198;2023-06-14T08:25:40;3.87;;;2.73;;
11113;SDS011;5610;52.154;9.198;2023-06-14T08:28:25;4.00;;;2.80;;
11113;SDS011;5610;52.154;9.198;2023-06-14T08:31:11;2.83;;;2.33;;
11113;SDS011;5610;52.154;9.198;2023-06-14T08:33:56;4.10;;;2.73;;
11113;SDS011;5610;52.154;9.198;2023-06-14T08:36:42;5.67;;;2.83;;
11113;SDS011;5610;52.154;9.198;2023-06-14T08:39:28;6.70;;;2.57;;
11113;SDS011;5610;52.154;9.198;2023-06-14T08:42:13;3.40;;;3.00;;
11113;SDS011;5610;52.154;9.198;2023-06-14T08:44:59;9.33;;;2.80;;
11113;SDS011;5610;52.154;9.198;2023-06-14T08:47:45;5.77;;;3.10;;
11113;SDS011;5610;52.154;9.198;2023-06-14T08:50:35;2.80;;;2.60;;
11113;SDS011;5610;52.154;9.198;2023-06-14T08:53:24;3.63;;;2.93;;
11113;SDS011;5610;52.154;9.198;2023-06-14T08:56:10;2.90;;;2.60;;
11113;SDS011;5610;52.154;9.198;2023-06-14T08:58:57;3.70;;;2.83;;
11113;SDS011;5610;52.154;9.198;2023-06-14T09:01:46;3.43;;;2.70;;
11113;SDS011;5610;52.154;9.198;2023-06-14T09:04:32;5.63;;;2.63;;
11113;SDS011;5610;52.154;9.198;2023-06-14T09:07:17;3.03;;;2.43;;
11113;SDS011;5610;52.154;9.198;2023-06-14T09:10:06;4.43;;;2.83;;
11113;SDS011;5610;52.154;9.198;2023-06-14T09:12:53;3.17;;;2.80;;
11113;SDS011;5610;52.154;9.198;2023-06-14T09:15:38;3.10;;;2.53;;
11113;SDS011;5610;52.154;9.198;2023-06-14T09:18:29;2.40;;;2.20;;
11113;SDS011;5610;52.154;9.198;2023-06-14T09:21:19;3.40;;;2.80;;
11113;SDS011;5610;52.154;9.198;2023-06-14T09:24:05;3.63;;;2.43;;
11113;SDS011;5610;52.154;9.198;2023-06-14T09:26:52;3.10;;;2.80;;
11113;SDS011;5610;52.154;9.198;2023-06-14T09:29:38;3.67;;;2.60;;
11113;SDS011;5610;52.154;9.198;2023-06-14T09:32:23;4.60;;;2.73;;
11113;SDS011;5610;52.154;9.198;2023-06-14T09:35:10;3.33;;;2.70;;
11113;SDS011;5610;52.154;9.198;2023-06-14T09:37:55;4.67;;;2.47;;
11113;SDS011;5610;52.154;9.198;2023-06-14T09:40:40;4.50;;;2.40;;
11113;SDS011;5610;52.154;9.198;2023-06-14T09:43:26;3.20;;;2.67;;
11113;SDS011;5610;52.154;9.198;2023-06-14T09:46:13;2.60;;;2.20;;
11113;SDS011;5610;52.154;9.198;2023-06-14T09:49:00;5.70;;;2.80;;
11113;SDS011;5610;52.154;9.198;2023-06-14T09:51:46;3.23;;;2.33;;
11113;SDS011;5610;52.154;9.198;2023-06-14T09:54:35;3.20;;;2.77;;
11113;SDS011;5610;52.154;9.198;2023-06-14T09:57:26;3.23;;;2.93;;
11113;SDS011;5610;52.154;9.198;2023-06-14T10:00:18;3.33;;;2.60;;
11113;SDS011;5610;52.154;9.198;2023-06-14T10:03:05;3.20;;;2.43;;
11113;SDS011;5610;52.154;9.198;2023-06-14T10:05:57;2.63;;;2.43;;
11113;SDS011;5610;52.154;9.198;2023-06-14T10:08:45;2.70;;;2.20;;
11113;SDS011;5610;52.154;9.198;2023-06-14T10:11:33;2.60;;;2.20;;
11113;SDS011;5610;52.154;9.198;2023-06-14T10:14:19;3.30;;;2.60;;
11113;SDS011;5610;52.154;9.198;2023-06-14T10:17:07;2.77;;;2.53;;
11113;SDS011;5610;52.154;9.198;2023-06-14T10:19:55;3.60;;;2.70;;
11113;SDS011;5610;52.154;9.198;2023-06-14T10:22:43;3.27;;;2.70;;
11113;SDS011;5610;52.154;9.198;2023-06-14T10:25:33;3.33;;;2.47;;
11113;SDS011;5610;52.154;9.198;2023-06-14T10:28:20;3.10;;;2.43;;
11113;SDS011;5610;52.154;9.198;2023-06-14T10:31:07;3.40;;;2.40;;
11113;SDS011;5610;52.154;9.198;2023-06-14T10:33:56;3.07;;;2.40;;
11113;SDS011;5610;52.154;9.198;2023-06-14T10:36:42;2.70;;;2.50;;
11113;SDS011;5610;52.154;9.198;2023-06-14T10:39:27;2.90;;;2.20;;
11113;SDS011;5610;52.154;9.198;2023-06-14T10:42:14;4.30;;;2.20;;
11113;SDS011;5610;52.154;9.198;2023-06-14T10:45:00;2.73;;;2.37;;
11113;SDS011;5610;52.154;9.198;2023-06-14T10:47:45;4.00;;;2.60;;
11113;SDS011;5610;52.154;9.198;2023-06-14T10:50:37;3.80;;;2.30;;
11113;SDS011;5610;52.154;9.198;2023-06-14T10:53:28;2.80;;;2.60;;
11113;SDS011;5610;52.154;9.198;2023-06-14T10:56:23;2.50;;;2.30;;
11113;SDS011;5610;52.154;9.198;2023-06-14T10:59:09;2.47;;;2.27;;
11113;SDS011;5610;52.154;9.198;2023-06-14T11:01:57;2.63;;;2.07;;
11113;SDS011;5610;52.154;9.198;2023-06-14T11:04:57;2.50;;;2.30;;
11113;SDS011;5610;52.154;9.198;2023-06-14T11:07:55;2.40;;;2.20;;
11113;SDS011;5610;52.154;9.198;2023-06-14T11:10:55;1.90;;;1.80;;
11113;SDS011;5610;52.154;9.198;2023-06-14T11:13:44;1.80;;;1.70;;
11113;SDS011;5610;52.154;9.198;2023-06-14T11:16:30;2.00;;;1.80;;
11113;SDS011;5610;52.154;9.198;2023-06-14T11:19:17;2.00;;;1.80;;
11113;SDS011;5610;52.154;9.198;2023-06-14T11:22:02;1.70;;;1.60;;
11113;SDS011;5610;52.154;9.198;2023-06-14T11:24:49;1.97;;;1.87;;
11113;SDS011;5610;52.154;9.198;2023-06-14T11:27:34;3.07;;;1.77;;
11113;SDS011;5610;52.154;9.198;2023-06-14T11:30:19;2.00;;;1.67;;
11113;SDS011;5610;52.154;9.198;2023-06-14T11:33:09;2.30;;;1.70;;
11113;SDS011;5610;52.154;9.198;2023-06-14T11:35:54;2.37;;;1.97;;
11113;SDS011;5610;52.154;9.198;2023-06-14T11:38:40;2.90;;;1.70;;
11113;SDS011;5610;52.154;9.198;2023-06-14T11:41:31;2.40;;;1.50;;
11113;SDS011;5610;52.154;9.198;2023-06-14T11:44:17;2.27;;;2.07;;
11113;SDS011;5610;52.154;9.198;2023-06-14T11:47:03;3.20;;;1.80;;
11113;SDS011;5610;52.154;9.198;2023-06-14T11:49:48;4.20;;;1.73;;
11113;SDS011;5610;52.154;9.198;2023-06-14T11:52:34;4.43;;;1.90;;
11113;SDS011;5610;52.154;9.198;2023-06-14T11:55:19;3.23;;;1.73;;
11113;SDS011;5610;52.154;9.198;2023-06-14T11:58:06;2.67;;;2.00;;
11113;SDS011;5610;52.154;9.198;2023-06-14T12:00:52;3.00;;;2.23;;
11113;SDS011;5610;52.154;9.198;2023-06-14T12:03:37;4.70;;;1.80;;
11113;SDS011;5610;52.154;9.198;2023-06-14T12:06:32;6.93;;;2.07;;
11113;SDS011;5610;52.154;9.198;2023-06-14T12:09:19;2.97;;;1.90;;
11113;SDS011;5610;52.154;9.198;2023-06-14T12:12:07;2.90;;;2.33;;
11113;SDS011;5610;52.154;9.198;2023-06-14T12:14:55;3.13;;;1.90;;
11113;SDS011;5610;52.154;9.198;2023-06-14T12:17:41;3.53;;;2.27;;
11113;SDS011;5610;52.154;9.198;2023-06-14T12:20:28;2.73;;;1.90;;
11113;SDS011;5610;52.154;9.198;2023-06-14T12:23:14;4.60;;;2.40;;
11113;SDS011;5610;52.154;9.198;2023-06-14T12:25:59;5.60;;;2.60;;
11113;SDS011;5610;52.154;9.198;2023-06-14T12:28:45;3.30;;;2.50;;
11113;SDS011;5610;52.154;9.198;2023-06-14T12:31:32;3.53;;;2.30;;
11113;SDS011;5610;52.154;9.198;2023-06-14T12:34:17;4.13;;;2.27;;
11113;SDS011;5610;52.154;9.198;2023-06-14T12:37:02;3.70;;;2.27;;
11113;SDS011;5610;52.154;9.198;2023-06-14T12:39:48;5.43;;;2.43;;
11113;SDS011;5610;52.154;9.198;2023-06-14T12:42:34;2.93;;;2.33;;
11113;SDS011;5610;52.154;9.198;2023-06-14T12:45:19;4.70;;;2.73;;
11113;SDS011;5610;52.154;9.198;2023-06-14T12:48:06;5.03;;;2.50;;
11113;SDS011;5610;52.154;9.198;2023-06-14T12:50:52;5.17;;;2.30;;
11113;SDS011;5610;52.154;9.198;2023-06-14T12:53:38;2.77;;;2.50;;
11113;SDS011;5610;52.154;9.198;2023-06-14T12:56:23;3.13;;;2.67;;
11113;SDS011;5610;52.154;9.198;2023-06-14T12:59:08;3.17;;;2.40;;
11113;SDS011;5610;52.154;9.198;2023-06-14T13:01:54;2.50;;;2.30;;
11113;SDS011;5610;52.154;9.198;2023-06-14T13:04:41;3.33;;;2.47;;
11113;SDS011;5610;52.154;9.198;2023-06-14T13:07:26;3.57;;;2.90;;
11113;SDS011;5610;52.154;9.198;2023-06-14T13:10:12;7.13;;;2.80;;
11113;SDS011;5610;52.154;9.198;2023-06-14T13:12:57;5.00;;;3.00;;
11113;SDS011;5610;52.154;9.198;2023-06-14T13:15:44;5.40;;;3.17;;
11113;SDS011;5610;52.154;9.198;2023-06-14T13:18:29;4.63;;;2.70;;
11113;SDS011;5610;52.154;9.198;2023-06-14T13:21:16;3.07;;;2.67;;
11113;SDS011;5610;52.154;9.198;2023-06-14T13:24:01;4.43;;;2.77;;
11113;SDS011;5610;52.154;9.198;2023-06-14T13:26:46;4.70;;;3.10;;
11113;SDS011;5610;52.154;9.198;2023-06-14T13:29:32;4.97;;;3.17;;
11113;SDS011;5610;52.154;9.198;2023-06-14T13:32:20;4.07;;;3.10;;
11113;SDS011;5610;52.154;9.198;2023-06-14T13:35:06;4.13;;;3.10;;
11113;SDS011;5610;52.154;9.198;2023-06-14T13:37:52;3.60;;;2.90;;
11113;SDS011;5610;52.154;9.198;2023-06-14T13:40:38;4.03;;;2.90;;
11113;SDS011;5610;52.154;9.198;2023-06-14T13:43:24;4.10;;;2.80;;
11113;SDS011;5610;52.154;9.198;2023-06-14T13:46:09;3.97;;;2.63;;
11113;SDS011;5610;52.154;9.198;2023-06-14T13:48:54;5.77;;;3.30;;
11113;SDS011;5610;52.154;9.198;2023-06-14T13:51:39;5.83;;;2.87;;
11113;SDS011;5610;52.154;9.198;2023-06-14T13:54:26;4.00;;;3.13;;
11113;SDS011;5610;52.154;9.198;2023-06-14T13:57:11;3.40;;;3.10;;
11113;SDS011;5610;52.154;9.198;2023-06-14T13:59:57;4.57;;;3.00;;
11113;SDS011;5610;52.154;9.198;2023-06-14T14:02:44;3.87;;;2.93;;
11113;SDS011;5610;52.154;9.198;2023-06-14T14:05:29;3.73;;;2.97;;
11113;SDS011;5610;52.154;9.198;2023-06-14T14:08:15;3.77;;;3.37;;
11113;SDS011;5610;52.154;9.198;2023-06-14T14:11:01;4.60;;;3.10;;
11113;SDS011;5610;52.154;9.198;2023-06-14T14:13:47;6.47;;;3.27;;
11113;SDS011;5610;52.154;9.198;2023-06-14T14:16:32;6.20;;;3.50;;
11113;SDS011;5610;52.154;9.198;2023-06-14T14:19:18;4.57;;;3.00;;
11113;SDS011;5610;52.154;9.198;2023-06-14T14:22:04;3.37;;;3.07;;
11113;SDS011;5610;52.154;9.198;2023-06-14T14:24:49;5.87;;;3.37;;
11113;SDS011;5610;52.154;9.198;2023-06-14T14:27:36;3.63;;;3.10;;
11113;SDS011;5610;52.154;9.198;2023-06-14T14:30:21;5.27;;;3.30;;
11113;SDS011;5610;52.154;9.198;2023-06-14T14:33:07;3.53;;;3.20;;
11113;SDS011;5610;52.154;9.198;2023-06-14T14:35:52;6.70;;;3.80;;
11113;SDS011;5610;52.154;9.198;2023-06-14T14:38:37;4.00;;;3.30;;
11113;SDS011;5610;52.154;9.198;2023-06-14T14:41:23;4.60;;;3.00;;
11113;SDS011;5610;52.154;9.198;2023-06-14T14:44:10;6.03;;;3.30;;
11113;SDS011;5610;52.154;9.198;2023-06-14T14:46:55;4.90;;;3.90;;
11113;SDS011;5610;52.154;9.198;2023-06-14T14:49:40;3.57;;;3.27;;
11113;SDS011;5610;52.154;9.198;2023-06-14T14:52:25;6.97;;;3.60;;
11113;SDS011;5610;52.154;9.198;2023-06-14T14:55:11;4.47;;;3.33;;
11113;SDS011;5610;52.154;9.198;2023-06-14T14:57:56;4.30;;;3.43;;
11113;SDS011;5610;52.154;9.198;2023-06-14T15:00:43;3.93;;;3.53;;
11113;SDS011;5610;52.154;9.198;2023-06-14T15:03:28;4.10;;;3.67;;
11113;SDS011;5610;52.154;9.198;2023-06-14T15:06:13;4.00;;;3.60;;
11113;SDS011;5610;52.154;9.198;2023-06-14T15:08:58;4.17;;;3.77;;
11113;SDS011;5610;52.154;9.198;2023-06-14T15:11:43;4.10;;;3.80;;
11113;SDS011;5610;52.154;9.198;2023-06-14T15:14:29;4.47;;;4.07;;
11113;SDS011;5610;52.154;9.198;2023-06-14T15:17:16;4.73;;;3.87;;
11113;SDS011;5610;52.154;9.198;2023-06-14T15:20:01;5.87;;;3.73;;
11113;SDS011;5610;52.154;9.198;2023-06-14T15:22:47;8.47;;;4.40;;
11113;SDS011;5610;52.154;9.198;2023-06-14T15:25:32;4.43;;;4.00;;
11113;SDS011;5610;52.154;9.198;2023-06-14T15:28:17;5.73;;;3.60;;
11113;SDS011;5610;52.154;9.198;2023-06-14T15:31:02;4.90;;;4.30;;
11113;SDS011;5610;52.154;9.198;2023-06-14T15:33:49;8.00;;;3.90;;
11113;SDS011;5610;52.154;9.198;2023-06-14T15:36:34;6.20;;;4.13;;
11113;SDS011;5610;52.154;9.198;2023-06-14T15:39:20;8.30;;;3.90;;
11113;SDS011;5610;52.154;9.198;2023-06-14T15:42:05;6.80;;;3.93;;
11113;SDS011;5610;52.154;9.198;2023-06-14T15:44:51;6.77;;;4.33;;
11113;SDS011;5610;52.154;9.198;2023-06-14T15:47:36;4.17;;;3.67;;
11113;SDS011;5610;52.154;9.198;2023-06-14T15:50:23;7.87;;;3.73;;
11113;SDS011;5610;52.154;9.198;2023-06-14T15:53:08;4.60;;;3.73;;
11113;SDS011;5610;52.154;9.198;2023-06-14T15:55:53;10.50;;;3.90;;
11113;SDS011;5610;52.154;9.198;2023-06-14T15:58:39;5.70;;;4.30;;
11113;SDS011;5610;52.154;9.198;2023-06-14T16:01:25;9.00;;;4.00;;
11113;SDS011;5610;52.154;9.198;2023-06-14T16:04:11;4.80;;;3.97;;
11113;SDS011;5610;52.154;9.198;2023-06-14T16:06:57;6.83;;;3.80;;
11113;SDS011;5610;52.154;9.198;2023-06-14T16:09:42;4.93;;;4.43;;
11113;SDS011;5610;52.154;9.198;2023-06-14T16:12:27;5.00;;;3.90;;
11113;SDS011;5610;52.154;9.198;2023-06-14T16:15:13;7.43;;;4.33;;
11113;SDS011;5610;52.154;9.198;2023-06-14T16:17:58;5.07;;;3.97;;
11113;SDS011;5610;52.154;9.198;2023-06-14T16:20:43;5.90;;;3.57;;
11113;SDS011;5610;52.154;9.198;2023-06-14T16:23:30;5.53;;;3.80;;
11113;SDS011;5610;52.154;9.198;2023-06-14T16:26:15;4.90;;;4.20;;
11113;SDS011;5610;52.154;9.198;2023-06-14T16:29:00;5.30;;;4.03;;
11113;SDS011;5610;52.154;9.198;2023-06-14T16:31:46;9.57;;;4.13;;
11113;SDS011;5610;52.154;9.198;2023-06-14T16:34:31;7.40;;;4.47;;
11113;SDS011;5610;52.154;9.198;2023-06-14T16:37:18;13.00;;;4.17;;
11113;SDS011;5610;52.154;9.198;2023-06-14T16:40:06;6.13;;;3.90;;
11113;SDS011;5610;52.154;9.198;2023-06-14T16:42:52;5.93;;;4.00;;
11113;SDS011;5610;52.154;9.198;2023-06-14T16:45:38;7.13;;;3.60;;
11113;SDS011;5610;52.154;9.198;2023-06-14T16:48:23;5.70;;;4.00;;
11113;SDS011;5610;52.154;9.198;2023-06-14T16:51:08;8.57;;;4.07;;
11113;SDS011;5610;52.154;9.198;2023-06-14T16:53:53;5.77;;;3.70;;
11113;SDS011;5610;52.154;9.198;2023-06-14T16:56:40;4.43;;;4.03;;
11113;SDS011;5610;52.154;9.198;2023-06-14T16:59:26;4.60;;;4.00;;